Time;durP1;ratioP1;P1;durP2;ratioP2;P2;SDS_P1;SDS_P2;PMS_P1;PMS_P2;Temp;Humidity;BMP_temperature;BMP_pressure;BME280_temperature;BME280_humidity;BME280_pressure;Samples;Min_cycle;Max_cycle;Signal;HPM_P1;HPM_P2
2022/03/15 00:00:35;;;;;;;4.64;4.24;;;;;;;2.18;68.63;101972.58;462468;113;924676;-68
2022/03/15 00:01:38;;;;;;;5.04;4.33;;;;;;;2.18;68.62;101980.65;466372;113;930542;-69
2022/03/15 00:02:42;;;;;;;3.94;3.64;;;;;;;2.18;68.56;101973.44;461563;113;922481;-69
2022/03/15 00:03:46;;;;;;;4.49;4.11;;;;;;;2.18;68.55;101970.75;457964;115;922850;-69
2022/03/15 00:04:50;;;;;;;4.29;3.90;;;;;;;2.19;68.54;101971.60;458488;113;922673;-70
2022/03/15 00:05:54;;;;;;;4.72;4.32;;;;;;;2.18;68.54;101967.20;464820;113;922620;-68
2022/03/15 00:06:58;;;;;;;4.07;3.67;;;;;;;2.18;68.50;101967.20;465104;113;922644;-70
2022/03/15 00:08:02;;;;;;;4.49;4.09;;;;;;;2.16;68.49;101966.45;464744;113;922504;-69
2022/03/15 00:09:05;;;;;;;4.75;4.34;;;;;;;2.16;68.49;101963.77;463239;113;922509;-69
2022/03/15 00:10:12;;;;;;;5.19;4.72;;;;;;;2.16;68.54;101963.77;459059;113;922575;-67
2022/03/15 00:11:14;;;;;;;4.36;4.02;;;;;;;2.15;68.60;101968.29;463669;113;931143;-68
2022/03/15 00:12:18;;;;;;;5.29;4.49;;;;;;;2.17;68.54;101962.79;459306;113;922605;-69
2022/03/15 00:13:21;;;;;;;5.54;4.94;;;;;;;2.17;68.51;101960.10;464766;113;931058;-69
2022/03/15 00:14:25;;;;;;;5.01;4.57;;;;;;;2.17;68.44;101963.65;464234;113;922709;-70
2022/03/15 00:15:28;;;;;;;4.68;4.31;;;;;;;2.17;68.42;101955.58;461055;113;930448;-69
2022/03/15 00:16:32;;;;;;;5.64;4.73;;;;;;;2.17;68.46;101966.34;464014;113;925015;-70
2022/03/15 00:17:36;;;;;;;5.03;4.53;;;;;;;2.17;68.48;101963.65;464022;113;925882;-69
2022/03/15 00:18:39;;;;;;;4.64;4.24;;;;;;;2.17;68.47;101960.96;464282;113;930578;-68
2022/03/15 00:19:43;;;;;;;4.83;4.19;;;;;;;2.17;68.54;101955.58;464388;113;922567;-69
2022/03/15 00:20:46;;;;;;;5.08;4.59;;;;;;;2.18;68.54;101961.81;462505;113;922931;-68
2022/03/15 00:21:50;;;;;;;4.22;3.82;;;;;;;2.17;68.50;101960.10;464201;113;922881;-70
2022/03/15 00:22:57;;;;;;;4.95;4.16;;;;;;;2.17;68.50;101955.58;465113;113;922647;-68
2022/03/15 00:23:59;;;;;;;6.59;4.18;;;;;;;2.18;68.48;101959.13;463630;113;924293;-69
2022/03/15 00:25:05;;;;;;;4.81;4.21;;;;;;;2.17;68.41;101960.96;464049;113;923517;-68
2022/03/15 00:26:09;;;;;;;4.55;4.16;;;;;;;2.17;68.42;101949.34;463473;113;922967;-67
2022/03/15 00:27:14;;;;;;;4.57;4.21;;;;;;;2.16;68.46;101945.79;462243;113;923142;-68
2022/03/15 00:28:17;;;;;;;4.92;4.47;;;;;;;2.16;68.39;101950.31;463514;113;930535;-70
2022/03/15 00:29:23;;;;;;;4.65;4.28;;;;;;;2.15;68.48;101952.15;463853;113;922671;-69
2022/03/15 00:30:27;;;;;;;4.61;4.21;;;;;;;2.16;68.44;101950.31;461651;112;923046;-69
2022/03/15 00:31:30;;;;;;;4.65;4.25;;;;;;;2.16;68.46;101953.00;461597;112;922635;-68
2022/03/15 00:32:35;;;;;;;4.96;4.45;;;;;;;2.16;68.43;101950.31;461501;112;922615;-68
2022/03/15 00:33:38;;;;;;;4.59;4.16;;;;;;;2.15;68.40;101944.08;467251;112;922499;-68
2022/03/15 00:34:42;;;;;;;5.44;4.06;;;;;;;2.16;68.45;101953.00;461620;112;922538;-69
2022/03/15 00:35:47;;;;;;;5.14;4.65;;;;;;;2.18;68.41;101953.74;462822;112;922603;-68
2022/03/15 00:36:50;;;;;;;4.27;3.90;;;;;;;2.17;68.40;101949.34;460790;112;930658;-69
2022/03/15 00:37:54;;;;;;;4.51;4.19;;;;;;;2.17;68.42;101949.34;461580;112;930551;-69
2022/03/15 00:38:58;;;;;;;4.99;4.48;;;;;;;2.16;68.35;101947.63;462032;112;922528;-68
2022/03/15 00:40:03;;;;;;;4.89;4.49;;;;;;;2.16;68.38;101945.79;461100;112;922636;-70
2022/03/15 00:41:06;;;;;;;4.61;4.18;;;;;;;2.16;68.34;101943.10;462587;112;928337;-68
2022/03/15 00:42:11;;;;;;;4.23;3.86;;;;;;;2.15;68.45;101945.94;462315;112;922514;-65
2022/03/15 00:43:14;;;;;;;4.83;4.44;;;;;;;2.17;68.44;101938.58;462851;112;922850;-69
2022/03/15 00:44:18;;;;;;;4.43;3.97;;;;;;;2.19;68.48;101942.01;463128;112;922953;-69
2022/03/15 00:45:23;;;;;;;4.74;4.36;;;;;;;2.19;68.46;101942.86;460339;112;931243;-68
2022/03/15 00:46:27;;;;;;;4.88;4.48;;;;;;;2.20;68.51;101943.72;462638;112;922600;-69
2022/03/15 00:47:30;;;;;;;4.53;4.09;;;;;;;2.23;68.50;101943.45;459318;112;922893;-68
2022/03/15 00:48:34;;;;;;;4.86;4.29;;;;;;;2.25;68.52;101941.50;460501;112;922619;-69
2022/03/15 00:49:37;;;;;;;5.36;3.87;;;;;;;2.27;68.41;101947.59;462065;112;922617;-68
2022/03/15 00:50:41;;;;;;;4.57;4.16;;;;;;;2.28;68.41;101941.23;457771;112;922524;-68
2022/03/15 00:51:44;;;;;;;4.04;3.70;;;;;;;2.28;68.41;101944.78;459667;112;922626;-68
2022/03/15 00:52:50;;;;;;;5.26;4.81;;;;;;;2.31;68.43;101935.61;466128;112;922906;-70
2022/03/15 00:53:54;;;;;;;4.04;3.64;;;;;;;2.33;68.46;101939.86;465387;112;923089;-66
2022/03/15 00:54:57;;;;;;;5.71;4.42;;;;;;;2.37;68.42;101940.48;464201;112;922693;-69
2022/03/15 00:56:01;;;;;;;4.30;3.87;;;;;;;2.40;68.39;101934.83;464162;112;922503;-70
2022/03/15 00:57:04;;;;;;;4.54;3.78;;;;;;;2.41;68.29;101932.02;467617;112;922987;-69
2022/03/15 00:58:09;;;;;;;4.65;4.19;;;;;;;2.43;68.22;101931.86;461577;112;922709;-69
2022/03/15 00:59:15;;;;;;;5.42;4.63;;;;;;;2.43;68.18;101937.24;461088;112;922578;-69
2022/03/15 01:00:21;;;;;;;4.45;4.05;;;;;;;2.43;68.11;101931.86;460257;112;922793;-68
2022/03/15 01:01:24;;;;;;;4.45;4.05;;;;;;;2.42;68.05;101930.18;462224;112;922593;-69
2022/03/15 01:02:28;;;;;;;4.64;4.24;;;;;;;2.43;67.97;101929.17;463740;112;922746;-69
2022/03/15 01:03:31;;;;;;;3.91;3.59;;;;;;;2.43;68.06;101921.09;460513;112;930600;-67
2022/03/15 01:04:35;;;;;;;4.46;4.06;;;;;;;2.44;67.96;101933.58;463353;112;930571;-68
2022/03/15 01:05:38;;;;;;;4.44;4.06;;;;;;;2.45;67.98;101921.83;460218;112;922872;-68
2022/03/15 01:06:42;;;;;;;4.63;4.24;;;;;;;2.46;68.11;101929.78;462025;112;923170;-68
2022/03/15 01:07:46;;;;;;;4.14;3.83;;;;;;;2.48;67.94;101926.97;466316;112;931057;-69
2022/03/15 01:08:49;;;;;;;4.38;3.98;;;;;;;2.50;67.96;101928.53;467631;112;922978;-69
2022/03/15 01:09:53;;;;;;;5.01;4.61;;;;;;;2.51;67.93;101919.48;461883;112;922555;-67
2022/03/15 01:10:57;;;;;;;4.32;3.91;;;;;;;2.54;67.93;101922.91;467715;112;922577;-68
2022/03/15 01:12:03;;;;;;;5.13;4.56;;;;;;;2.54;67.85;101923.73;461248;112;922808;-68
2022/03/15 01:13:06;;;;;;;5.27;4.81;;;;;;;2.56;67.82;101923.61;461607;112;922651;-70
2022/03/15 01:14:09;;;;;;;4.27;3.88;;;;;;;2.57;67.73;101926.18;459446;112;922565;-68
2022/03/15 01:15:13;;;;;;;5.09;4.62;;;;;;;2.59;67.66;101917.98;462131;112;930506;-69
2022/03/15 01:16:16;;;;;;;4.45;4.10;;;;;;;2.59;67.61;101917.98;466258;112;930491;-69
2022/03/15 01:17:20;;;;;;;4.61;4.19;;;;;;;2.58;67.59;101917.13;467723;112;922761;-69
2022/03/15 01:18:23;;;;;;;4.82;4.42;;;;;;;2.59;67.56;101926.06;462353;112;930635;-71
2022/03/15 01:19:26;;;;;;;4.97;4.47;;;;;;;2.59;67.54;101926.06;459386;112;922619;-68
2022/03/15 01:20:30;;;;;;;4.49;4.09;;;;;;;2.59;67.58;101912.59;462604;112;922565;-69
2022/03/15 01:21:39;;;;;;;4.86;4.48;;;;;;;2.60;67.54;101920.52;461288;112;922995;-68
2022/03/15 01:22:40;;;;;;;5.10;4.66;;;;;;;2.61;67.52;101921.37;463241;112;922636;-67
2022/03/15 01:23:43;;;;;;;4.64;4.24;;;;;;;2.61;67.53;101918.69;461297;112;922690;-68
2022/03/15 01:24:47;;;;;;;5.19;4.72;;;;;;;2.61;67.55;101916.84;463427;112;922795;-69
2022/03/15 01:25:50;;;;;;;4.78;4.37;;;;;;;2.62;67.56;101918.56;467696;112;922733;-71
2022/03/15 01:26:54;;;;;;;5.37;4.60;;;;;;;2.62;67.47;101920.40;462726;112;922530;-70
2022/03/15 01:27:57;;;;;;;4.44;4.04;;;;;;;2.62;67.48;101920.40;465643;112;929417;-67
2022/03/15 01:29:01;;;;;;;4.46;4.11;;;;;;;2.64;67.46;101921.13;462252;112;922623;-68
2022/03/15 01:30:08;;;;;;;5.24;4.76;;;;;;;2.64;67.48;101921.13;460300;112;922628;-68
2022/03/15 01:31:11;;;;;;;5.35;4.65;;;;;;;2.65;67.48;101920.98;463982;113;922735;-68
2022/03/15 01:32:16;;;;;;;4.71;4.13;;;;;;;2.67;67.37;101920.86;463940;113;922447;-70
2022/03/15 01:33:21;;;;;;;4.92;4.52;;;;;;;2.69;67.38;101926.98;462637;113;922571;-69
2022/03/15 01:34:24;;;;;;;5.04;4.64;;;;;;;2.70;67.41;101923.30;463862;113;922990;-68
2022/03/15 01:35:29;;;;;;;4.82;4.42;;;;;;;2.70;67.29;101913.36;464086;113;922501;-67
2022/03/15 01:36:34;;;;;;;4.60;4.20;;;;;;;2.70;67.23;101921.44;464064;113;922534;-69
2022/03/15 01:37:38;;;;;;;5.01;4.55;;;;;;;2.69;67.22;101917.06;463071;113;922559;-68
2022/03/15 01:38:45;;;;;;;5.10;4.69;;;;;;;2.68;67.16;101926.13;455239;115;930743;-67
2022/03/15 01:39:48;;;;;;;5.27;4.80;;;;;;;2.67;67.17;101919.02;455660;113;923235;-67
2022/03/15 01:40:52;;;;;;;4.82;4.42;;;;;;;2.67;67.17;101926.24;469186;112;922584;-68
2022/03/15 01:41:55;;;;;;;5.06;4.64;;;;;;;2.66;67.13;101922.69;465519;113;922757;-70
2022/03/15 01:42:58;;;;;;;4.72;4.30;;;;;;;2.66;67.18;101925.39;469339;113;930475;-68
2022/03/15 01:44:03;;;;;;;5.00;4.60;;;;;;;2.65;67.22;101925.51;463592;113;923311;-68
2022/03/15 01:45:07;;;;;;;5.06;4.56;;;;;;;2.64;67.08;101931.91;462694;112;922463;-69
2022/03/15 01:46:13;;;;;;;5.25;4.71;;;;;;;2.61;67.11;101929.45;462455;113;923389;-68
2022/03/15 01:47:17;;;;;;;4.96;4.52;;;;;;;2.60;67.11;101925.05;464528;113;922949;-67
2022/03/15 01:48:21;;;;;;;5.09;4.64;;;;;;;2.58;67.10;101922.52;463426;113;922570;-69
2022/03/15 01:49:24;;;;;;;5.17;4.73;;;;;;;2.56;67.07;101923.61;463467;113;922518;-67
2022/03/15 01:50:28;;;;;;;4.68;4.28;;;;;;;2.53;67.04;101919.36;465084;113;922618;-69
2022/03/15 01:51:32;;;;;;;5.17;4.68;;;;;;;2.52;67.08;101914.95;455442;115;923068;-67
2022/03/15 01:52:36;;;;;;;5.02;4.48;;;;;;;2.50;67.10;101906.14;455213;113;922788;-68
2022/03/15 01:53:40;;;;;;;5.08;4.69;;;;;;;2.48;67.13;101918.89;464379;113;930390;-67
2022/03/15 01:54:44;;;;;;;4.63;4.23;;;;;;;2.46;67.08;101910.94;461624;113;922459;-68
2022/03/15 01:55:49;;;;;;;4.68;4.29;;;;;;;2.44;67.04;101910.20;460910;113;922643;-68
2022/03/15 01:56:52;;;;;;;4.94;4.54;;;;;;;2.42;67.00;101914.88;467112;112;922607;-68
2022/03/15 01:57:56;;;;;;;3.82;3.50;;;;;;;2.41;67.11;101912.31;462743;113;922576;-68
2022/03/15 01:59:00;;;;;;;4.94;4.53;;;;;;;2.40;67.17;101918.67;458261;113;930618;-67
2022/03/15 02:00:05;;;;;;;4.38;4.03;;;;;;;2.40;67.17;101913.30;463925;113;922934;-70
2022/03/15 02:01:08;;;;;;;5.14;4.63;;;;;;;2.39;67.12;101909.74;464069;113;922714;-68
2022/03/15 02:02:12;;;;;;;4.70;4.21;;;;;;;2.39;67.18;101909.74;464108;113;923091;-68
2022/03/15 02:03:15;;;;;;;4.58;4.22;;;;;;;2.38;67.19;101905.34;464306;113;930535;-68
2022/03/15 02:04:19;;;;;;;4.49;4.09;;;;;;;2.39;67.22;101911.58;464625;113;922562;-68
2022/03/15 02:05:22;;;;;;;4.86;4.46;;;;;;;2.38;67.13;101908.03;464802;113;922852;-68
2022/03/15 02:06:26;;;;;;;4.91;4.34;;;;;;;2.38;67.14;101910.72;465230;113;923024;-70
2022/03/15 02:07:31;;;;;;;4.78;4.37;;;;;;;2.36;67.13;101910.02;464838;113;930500;-70
2022/03/15 02:08:35;;;;;;;4.55;4.15;;;;;;;2.34;67.12;101908.42;464383;113;922447;-68
2022/03/15 02:09:39;;;;;;;4.74;4.34;;;;;;;2.32;67.17;101913.92;464017;113;922527;-68
2022/03/15 02:10:43;;;;;;;5.32;4.90;;;;;;;2.29;67.18;101914.20;464002;113;922935;-70
2022/03/15 02:11:46;;;;;;;4.97;4.56;;;;;;;2.28;67.13;101920.55;464476;113;922914;-68
2022/03/15 02:12:50;;;;;;;5.36;4.93;;;;;;;2.28;67.28;101917.01;464470;113;922669;-67
2022/03/15 02:13:53;;;;;;;5.02;4.55;;;;;;;2.27;67.29;101917.98;461008;113;922580;-68
2022/03/15 02:15:01;;;;;;;4.88;4.46;;;;;;;2.24;67.26;101919.11;463886;113;922635;-68
2022/03/15 02:16:04;;;;;;;4.79;4.17;;;;;;;2.22;67.28;101920.21;464030;113;922544;-66
2022/03/15 02:17:10;;;;;;;5.25;4.74;;;;;;;2.20;67.37;101912.29;463849;113;923346;-68
2022/03/15 02:18:13;;;;;;;4.98;4.58;;;;;;;2.19;67.34;101920.48;463391;113;923518;-67
2022/03/15 02:19:17;;;;;;;6.19;4.25;;;;;;;2.16;67.37;101920.72;463765;113;922526;-67
2022/03/15 02:20:21;;;;;;;4.76;4.36;;;;;;;2.14;67.37;101925.39;464075;113;922580;-68
2022/03/15 02:21:25;;;;;;;4.80;4.37;;;;;;;2.10;67.44;101917.56;464060;113;922579;-65
2022/03/15 02:22:29;;;;;;;5.04;4.64;;;;;;;2.10;67.47;101920.25;463629;113;922603;-69
2022/03/15 02:23:34;;;;;;;4.79;4.03;;;;;;;2.08;67.52;101919.55;465067;113;922595;-68
2022/03/15 02:24:39;;;;;;;4.81;4.19;;;;;;;2.07;67.58;101916.97;465239;113;930557;-67
2022/03/15 02:25:43;;;;;;;4.97;4.49;;;;;;;2.06;67.56;101921.50;463365;113;922862;-67
2022/03/15 02:26:47;;;;;;;4.68;4.28;;;;;;;2.05;67.65;101917.09;462244;113;922451;-67
2022/03/15 02:27:51;;;;;;;4.89;4.47;;;;;;;2.06;67.69;101916.11;462577;113;930984;-67
2022/03/15 02:28:55;;;;;;;4.86;4.46;;;;;;;2.06;67.69;101920.64;466235;113;922788;-69
2022/03/15 02:29:58;;;;;;;4.79;4.40;;;;;;;2.05;67.67;101916.23;466273;113;922903;-67
2022/03/15 02:31:01;;;;;;;4.97;4.53;;;;;;;2.04;67.74;101912.69;462313;113;930540;-68
2022/03/15 02:32:05;;;;;;;5.41;4.94;;;;;;;2.03;67.73;101921.77;463438;114;931044;-68
2022/03/15 02:33:09;;;;;;;5.05;4.65;;;;;;;2.04;67.80;101918.06;463193;114;922580;-69
2022/03/15 02:34:12;;;;;;;5.33;4.92;;;;;;;2.03;67.76;101905.63;462097;114;923523;-68
2022/03/15 02:35:16;;;;;;;5.26;4.86;;;;;;;2.03;67.81;101902.08;463308;114;930811;-68
2022/03/15 02:36:19;;;;;;;5.02;4.62;;;;;;;2.04;67.88;101899.23;463331;114;922507;-68
2022/03/15 02:37:24;;;;;;;4.81;4.46;;;;;;;2.04;67.86;101901.10;463314;114;922547;-68
2022/03/15 02:38:27;;;;;;;5.79;5.04;;;;;;;2.04;67.88;101901.10;462902;114;922550;-67
2022/03/15 02:39:31;;;;;;;5.04;4.64;;;;;;;2.05;67.87;101914.40;462882;114;923078;-68
2022/03/15 02:40:34;;;;;;;5.19;4.71;;;;;;;2.05;67.86;101909.02;463206;114;922622;-68
2022/03/15 02:41:37;;;;;;;5.28;4.84;;;;;;;2.05;67.85;101917.09;463178;114;930651;-67
2022/03/15 02:42:41;;;;;;;5.45;4.96;;;;;;;2.05;67.85;101909.02;463337;114;922502;-67
2022/03/15 02:43:45;;;;;;;5.03;4.62;;;;;;;2.05;67.87;101908.16;463232;114;922500;-67
2022/03/15 02:44:48;;;;;;;5.05;4.64;;;;;;;2.04;67.82;101907.30;463388;114;922773;-68
2022/03/15 02:45:51;;;;;;;4.98;4.56;;;;;;;2.04;67.89;101901.10;463233;114;922870;-68
2022/03/15 02:46:55;;;;;;;4.88;4.48;;;;;;;2.03;67.85;101894.86;463321;114;930567;-67
2022/03/15 02:47:58;;;;;;;4.59;4.19;;;;;;;2.04;67.87;101895.72;462557;114;930507;-70
2022/03/15 02:49:02;;;;;;;5.36;4.86;;;;;;;2.03;67.88;101900.24;463473;114;923129;-68
2022/03/15 02:50:06;;;;;;;4.91;4.51;;;;;;;2.03;67.90;101897.55;463315;114;922489;-69
2022/03/15 02:51:10;;;;;;;5.17;4.74;;;;;;;2.03;67.96;101902.08;463294;114;922620;-69
2022/03/15 02:52:14;;;;;;;4.78;4.41;;;;;;;2.03;67.97;101905.63;463328;114;923003;-68
2022/03/15 02:53:18;;;;;;;5.42;4.93;;;;;;;2.03;67.97;101900.24;462430;114;922605;-69
2022/03/15 02:54:21;;;;;;;4.83;4.41;;;;;;;2.03;67.94;101892.17;463277;114;930532;-69
2022/03/15 02:55:25;;;;;;;5.42;4.92;;;;;;;2.03;67.98;101900.24;463350;114;923326;-68
2022/03/15 02:56:33;;;;;;;5.81;5.32;;;;;;;2.03;68.00;101900.24;462964;114;922500;-69
2022/03/15 02:57:34;;;;;;;5.51;5.03;;;;;;;2.04;68.02;101909.17;463223;114;923002;-69
2022/03/15 02:58:41;;;;;;;6.17;5.22;;;;;;;2.05;68.11;101903.64;463365;114;922587;-70
2022/03/15 02:59:44;;;;;;;6.14;5.57;;;;;;;2.06;68.03;101905.35;463292;114;922666;-67
2022/03/15 03:00:48;;;;;;;5.33;4.87;;;;;;;2.06;68.06;101902.66;463280;114;923189;-68
2022/03/15 03:01:52;;;;;;;6.20;5.42;;;;;;;2.06;67.99;101902.66;463183;114;930626;-67
2022/03/15 03:02:57;;;;;;;5.94;5.01;;;;;;;2.07;68.01;101901.69;463258;114;922622;-69
2022/03/15 03:04:01;;;;;;;7.39;5.25;;;;;;;2.08;68.03;101902.55;463387;114;922643;-68
2022/03/15 03:05:05;;;;;;;5.08;4.63;;;;;;;2.08;68.07;101907.92;463266;114;930635;-69
2022/03/15 03:06:08;;;;;;;5.64;5.14;;;;;;;2.07;67.89;101909.76;463322;114;922675;-69
2022/03/15 03:07:15;;;;;;;5.49;5.04;;;;;;;2.05;67.91;101906.33;463229;114;922847;-68
2022/03/15 03:08:18;;;;;;;6.00;5.48;;;;;;;2.05;67.99;101911.71;463216;114;922921;-68
2022/03/15 03:09:21;;;;;;;5.62;4.96;;;;;;;2.05;68.02;101909.02;463342;114;922886;-67
2022/03/15 03:10:25;;;;;;;5.12;4.67;;;;;;;2.06;68.00;101909.88;463363;114;922540;-68
2022/03/15 03:11:29;;;;;;;6.21;5.61;;;;;;;2.06;68.01;101921.50;463264;114;922589;-67
2022/03/15 03:12:34;;;;;;;5.97;5.47;;;;;;;2.06;68.03;101917.95;463212;114;922631;-67
2022/03/15 03:13:40;;;;;;;6.51;5.88;;;;;;;2.06;68.04;101913.42;463405;114;923279;-68
2022/03/15 03:14:46;;;;;;;5.79;5.30;;;;;;;2.06;67.98;101913.42;463297;114;922918;-68
2022/03/15 03:15:49;;;;;;;6.04;5.49;;;;;;;2.07;67.98;101908.91;463230;114;922545;-68
2022/03/15 03:16:53;;;;;;;6.46;5.90;;;;;;;2.06;67.97;101918.80;463306;114;922821;-65
2022/03/15 03:17:56;;;;;;;5.74;5.25;;;;;;;2.06;67.98;101916.11;463371;114;923058;-69
2022/03/15 03:18:59;;;;;;;5.48;4.99;;;;;;;2.05;67.92;101916.23;463015;114;922537;-67
2022/03/15 03:20:05;;;;;;;5.53;5.08;;;;;;;2.04;67.87;101909.17;463401;114;922749;-68
2022/03/15 03:21:09;;;;;;;5.77;5.27;;;;;;;2.03;67.91;101905.63;463210;114;930715;-68
2022/03/15 03:22:13;;;;;;;6.26;5.66;;;;;;;2.03;67.88;101910.15;463387;114;922632;-67
2022/03/15 03:23:17;;;;;;;6.16;5.59;;;;;;;2.03;67.95;101910.15;463348;113;923140;-69
2022/03/15 03:24:24;;;;;;;5.68;5.18;;;;;;;2.02;67.94;101909.29;463397;114;923345;-68
2022/03/15 03:25:26;;;;;;;5.41;4.91;;;;;;;2.01;67.91;101918.34;463214;114;922676;-68
2022/03/15 03:26:32;;;;;;;6.15;5.66;;;;;;;2.00;67.93;101908.55;463191;114;922439;-68
2022/03/15 03:27:36;;;;;;;5.99;5.49;;;;;;;2.01;67.99;101918.34;463261;114;922563;-68
2022/03/15 03:28:39;;;;;;;6.34;5.66;;;;;;;2.01;68.01;101910.27;463391;114;922499;-67
2022/03/15 03:29:42;;;;;;;5.72;5.12;;;;;;;2.03;68.17;101911.00;463282;114;922715;-68
2022/03/15 03:30:47;;;;;;;5.79;5.29;;;;;;;2.03;68.17;101911.00;463375;114;930654;-72
2022/03/15 03:31:51;;;;;;;6.02;5.54;;;;;;;2.04;68.02;101909.99;462891;112;922544;-71
2022/03/15 03:32:54;;;;;;;5.66;4.94;;;;;;;2.05;67.94;101908.16;460279;112;922902;-70
2022/03/15 03:33:57;;;;;;;5.79;5.37;;;;;;;2.04;67.87;101912.69;459436;112;922733;-67
2022/03/15 03:35:04;;;;;;;5.05;4.51;;;;;;;2.06;68.00;101915.25;461112;112;922505;-68
2022/03/15 03:36:06;;;;;;;6.41;5.37;;;;;;;2.07;68.05;101917.83;461341;112;922838;-69
2022/03/15 03:37:09;;;;;;;6.03;5.56;;;;;;;2.08;68.03;101902.55;460005;112;922466;-68
2022/03/15 03:38:14;;;;;;;5.36;4.86;;;;;;;2.08;67.99;101911.47;462189;112;930510;-67
2022/03/15 03:39:17;;;;;;;6.18;5.46;;;;;;;2.09;68.03;101909.64;461263;112;922629;-69
2022/03/15 03:40:21;;;;;;;6.65;6.08;;;;;;;2.08;67.96;101906.09;459971;112;922550;-66
2022/03/15 03:41:24;;;;;;;7.42;5.71;;;;;;;2.06;67.96;101905.35;462100;112;922526;-68
2022/03/15 03:42:27;;;;;;;5.84;5.36;;;;;;;2.04;67.95;101903.79;459924;112;922847;-67
2022/03/15 03:43:31;;;;;;;6.19;5.61;;;;;;;2.03;67.98;101902.94;462177;112;923001;-67
2022/03/15 03:44:35;;;;;;;5.69;5.19;;;;;;;2.01;68.01;101896.81;459653;112;922559;-68
2022/03/15 03:45:39;;;;;;;6.39;5.90;;;;;;;2.00;68.06;101897.79;466030;112;930457;-68
2022/03/15 03:46:42;;;;;;;6.34;5.72;;;;;;;1.98;68.01;101891.70;459658;112;922621;-69
2022/03/15 03:47:46;;;;;;;6.21;5.71;;;;;;;1.97;68.10;101898.06;462720;112;922559;-70
2022/03/15 03:48:50;;;;;;;6.44;5.86;;;;;;;1.97;68.15;101900.75;460795;112;930604;-68
2022/03/15 03:49:53;;;;;;;6.72;6.14;;;;;;;1.97;68.28;101900.75;462363;112;922522;-68
2022/03/15 03:50:57;;;;;;;6.24;5.60;;;;;;;2.00;68.33;101896.93;459188;112;930597;-69
2022/03/15 03:52:01;;;;;;;6.35;5.85;;;;;;;2.01;68.26;101898.64;460394;112;930510;-69
2022/03/15 03:53:05;;;;;;;6.25;5.65;;;;;;;2.00;68.16;101892.41;460127;112;922712;-69
2022/03/15 03:54:08;;;;;;;6.36;5.81;;;;;;;1.97;68.13;101892.68;462241;112;922998;-69
2022/03/15 03:55:11;;;;;;;5.92;5.38;;;;;;;1.96;68.17;101887.42;463901;112;930557;-69
2022/03/15 03:56:15;;;;;;;5.75;5.25;;;;;;;1.95;68.12;101885.70;461439;112;922508;-68
2022/03/15 03:57:19;;;;;;;6.29;5.79;;;;;;;1.92;68.15;101884.14;459392;112;922717;-68
2022/03/15 03:58:22;;;;;;;6.58;6.07;;;;;;;1.91;68.26;101890.49;468520;112;922739;-70
2022/03/15 03:59:26;;;;;;;5.86;5.38;;;;;;;1.91;68.27;101890.49;460222;112;930527;-69
2022/03/15 04:00:30;;;;;;;7.08;6.38;;;;;;;1.92;68.28;101894.04;462660;112;930624;-67
2022/03/15 04:01:34;;;;;;;6.82;6.21;;;;;;;1.90;68.31;101887.92;459177;112;922814;-69
2022/03/15 04:02:37;;;;;;;6.65;6.01;;;;;;;1.88;68.33;101885.35;460117;112;922605;-69
2022/03/15 04:03:40;;;;;;;7.18;6.58;;;;;;;1.90;68.43;101882.55;466124;112;923390;-68
2022/03/15 04:04:44;;;;;;;6.70;6.12;;;;;;;1.92;68.44;101888.66;459936;112;923159;-68
2022/03/15 04:05:49;;;;;;;6.71;6.19;;;;;;;1.92;68.40;101886.83;463323;112;923125;-69
2022/03/15 04:06:55;;;;;;;7.09;6.49;;;;;;;1.91;68.32;101879.73;460151;112;922895;-68
2022/03/15 04:08:01;;;;;;;7.26;6.66;;;;;;;1.89;68.32;101888.90;461374;112;923090;-66
2022/03/15 04:09:10;;;;;;;7.67;6.97;;;;;;;1.86;68.36;101891.86;460646;112;922548;-68
2022/03/15 04:10:15;;;;;;;7.76;7.03;;;;;;;1.83;68.37;101886.71;462360;112;922675;-68
2022/03/15 04:11:19;;;;;;;7.99;7.30;;;;;;;1.81;68.41;101886.01;463504;112;922552;-68
2022/03/15 04:12:23;;;;;;;8.06;7.37;;;;;;;1.79;68.55;101886.12;463555;112;922543;-69
2022/03/15 04:13:27;;;;;;;7.76;7.08;;;;;;;1.79;68.57;101880.75;461046;112;923188;-69
2022/03/15 04:14:31;;;;;;;7.80;7.10;;;;;;;1.80;68.61;101878.91;461979;112;922647;-66
2022/03/15 04:15:34;;;;;;;7.05;6.47;;;;;;;1.82;68.65;101882.34;455963;112;922626;-69
2022/03/15 04:16:40;;;;;;;7.84;7.15;;;;;;;1.85;68.71;101887.45;461594;112;922583;-68
2022/03/15 04:17:44;;;;;;;7.17;6.59;;;;;;;1.87;68.70;101882.81;459636;112;922498;-66
2022/03/15 04:18:47;;;;;;;7.63;6.93;;;;;;;1.88;68.64;101888.05;461394;112;922634;-66
2022/03/15 04:19:51;;;;;;;7.11;6.42;;;;;;;1.89;68.59;101879.00;461571;112;922600;-68
2022/03/15 04:20:54;;;;;;;8.04;7.40;;;;;;;1.89;68.56;101883.52;464964;112;922584;-68
2022/03/15 04:21:59;;;;;;;7.80;7.13;;;;;;;1.88;68.52;101879.97;465334;112;930922;-68
2022/03/15 04:23:03;;;;;;;7.69;7.09;;;;;;;1.89;68.55;101888.90;464744;112;922859;-69
2022/03/15 04:24:06;;;;;;;8.77;7.97;;;;;;;1.89;68.63;101884.37;465372;112;931064;-68
2022/03/15 04:25:10;;;;;;;9.26;8.36;;;;;;;1.88;68.55;101888.05;461065;112;930604;-67
2022/03/15 04:26:14;;;;;;;8.66;7.87;;;;;;;1.87;68.60;101891.73;461424;112;922804;-70
2022/03/15 04:27:18;;;;;;;12.25;9.18;;;;;;;1.86;68.60;101879.27;464044;112;922938;-68
2022/03/15 04:28:22;;;;;;;8.32;7.49;;;;;;;1.86;68.55;101881.95;462171;112;922637;-66
2022/03/15 04:29:26;;;;;;;8.69;7.89;;;;;;;1.84;68.59;101880.36;463156;112;923118;-69
2022/03/15 04:30:32;;;;;;;8.69;7.92;;;;;;;1.82;68.63;101883.17;466126;112;922767;-68
2022/03/15 04:31:35;;;;;;;8.08;7.43;;;;;;;1.82;68.66;101885.86;458898;112;922634;-68
2022/03/15 04:32:39;;;;;;;9.11;8.26;;;;;;;1.81;68.65;101884.17;464596;112;922639;-70
2022/03/15 04:33:43;;;;;;;9.17;8.37;;;;;;;1.81;68.68;101889.55;461456;112;922544;-68
2022/03/15 04:34:46;;;;;;;8.76;8.02;;;;;;;1.81;68.77;101883.31;464145;112;922955;-68
2022/03/15 04:35:50;;;;;;;8.51;7.81;;;;;;;1.84;68.79;101891.12;461526;112;922676;-67
2022/03/15 04:36:53;;;;;;;7.57;6.98;;;;;;;1.85;68.80;101887.45;469108;112;930448;-68
2022/03/15 04:37:57;;;;;;;7.89;7.28;;;;;;;1.86;68.83;101894.55;467430;112;922684;-70
2022/03/15 04:39:00;;;;;;;8.15;7.47;;;;;;;1.87;68.79;101894.43;470104;112;922588;-68
2022/03/15 04:40:07;;;;;;;9.38;8.57;;;;;;;1.88;68.76;101890.73;465171;112;922651;-68
2022/03/15 04:41:11;;;;;;;9.09;7.57;;;;;;;1.88;68.73;101890.73;464078;112;930498;-69
2022/03/15 04:42:14;;;;;;;7.81;7.21;;;;;;;1.89;68.68;101892.45;465093;112;922521;-68
2022/03/15 04:43:18;;;;;;;9.14;8.32;;;;;;;1.89;68.68;101892.45;465570;112;922508;-68
2022/03/15 04:44:21;;;;;;;7.85;7.14;;;;;;;1.89;68.67;101889.75;464267;112;930605;-69
2022/03/15 04:45:24;;;;;;;8.51;7.89;;;;;;;1.89;68.70;101887.06;463952;112;922553;-66
2022/03/15 04:46:28;;;;;;;8.58;7.87;;;;;;;1.90;68.73;101888.78;462711;112;922571;-68
2022/03/15 04:47:31;;;;;;;8.02;7.42;;;;;;;1.90;68.74;101894.16;465210;112;923006;-69
2022/03/15 04:48:35;;;;;;;8.01;7.31;;;;;;;1.91;68.72;101890.49;469786;112;922614;-68
2022/03/15 04:49:40;;;;;;;8.52;7.79;;;;;;;1.93;68.80;101891.20;468230;112;922623;-67
2022/03/15 04:50:43;;;;;;;8.38;7.69;;;;;;;1.96;68.86;101885.59;464391;112;922923;-69
2022/03/15 04:51:48;;;;;;;8.79;7.89;;;;;;;2.00;68.84;101884.34;467949;112;922885;-68
2022/03/15 04:52:51;;;;;;;9.06;8.13;;;;;;;2.04;68.86;101887.66;466695;112;930662;-68
2022/03/15 04:53:54;;;;;;;9.38;8.55;;;;;;;2.05;68.77;101883.95;470572;112;922618;-68
2022/03/15 04:54:58;;;;;;;9.00;8.17;;;;;;;2.08;68.63;101881.02;469835;112;922692;-70
2022/03/15 04:56:02;;;;;;;9.25;8.44;;;;;;;2.08;68.64;101884.57;469841;112;922520;-69
2022/03/15 04:57:05;;;;;;;9.51;8.37;;;;;;;2.08;68.49;101887.27;464973;112;923099;-67